sensor_id;sensor_type;location;lat;lon;timestamp;P1;durP1;ratioP1;P2;durP2;ratioP2
31618;SDS011;18230;51.502;7.108;2023-10-13T00:01:18;29.33;;;12.00;;
31618;SDS011;18230;51.502;7.108;2023-10-13T00:06:18;21.33;;;11.15;;
31618;SDS011;18230;51.502;7.108;2023-10-13T00:11:19;21.60;;;11.43;;
31618;SDS011;18230;51.502;7.108;2023-10-13T00:16:22;22.75;;;11.07;;
31618;SDS011;18230;51.502;7.108;2023-10-13T00:21:27;18.55;;;11.52;;
31618;SDS011;18230;51.502;7.108;2023-10-13T00:26:35;18.73;;;11.00;;
31618;SDS011;18230;51.502;7.108;2023-10-13T00:31:37;21.60;;;11.23;;
31618;SDS011;18230;51.502;7.108;2023-10-13T00:36:40;18.60;;;9.82;;
31618;SDS011;18230;51.502;7.108;2023-10-13T00:41:48;23.20;;;10.95;;
31618;SDS011;18230;51.502;7.108;2023-10-13T00:46:52;19.80;;;10.68;;
31618;SDS011;18230;51.502;7.108;2023-10-13T00:51:56;18.10;;;9.60;;
31618;SDS011;18230;51.502;7.108;2023-10-13T00:56:57;18.58;;;10.88;;
31618;SDS011;18230;51.502;7.108;2023-10-13T01:02:19;20.92;;;11.63;;
31618;SDS011;18230;51.502;7.108;2023-10-13T01:07:37;18.10;;;9.93;;
31618;SDS011;18230;51.502;7.108;2023-10-13T01:12:38;18.70;;;10.73;;
31618;SDS011;18230;51.502;7.108;2023-10-13T01:17:39;16.80;;;10.13;;
31618;SDS011;18230;51.502;7.108;2023-10-13T01:22:39;17.77;;;9.90;;
31618;SDS011;18230;51.502;7.108;2023-10-13T01:27:41;17.30;;;10.32;;
31618;SDS011;18230;51.502;7.108;2023-10-13T01:32:41;21.67;;;10.90;;
31618;SDS011;18230;51.502;7.108;2023-10-13T01:37:45;19.65;;;9.77;;
31618;SDS011;18230;51.502;7.108;2023-10-13T01:42:46;22.20;;;10.10;;
31618;SDS011;18230;51.502;7.108;2023-10-13T01:47:47;20.52;;;10.02;;
31618;SDS011;18230;51.502;7.108;2023-10-13T01:52:51;17.98;;;9.18;;
31618;SDS011;18230;51.502;7.108;2023-10-13T01:57:59;18.92;;;9.70;;
31618;SDS011;18230;51.502;7.108;2023-10-13T02:03:00;17.45;;;10.00;;
31618;SDS011;18230;51.502;7.108;2023-10-13T02:08:01;17.05;;;10.25;;
31618;SDS011;18230;51.502;7.108;2023-10-13T02:13:02;22.67;;;10.57;;
31618;SDS011;18230;51.502;7.108;2023-10-13T02:18:04;15.88;;;9.85;;
31618;SDS011;18230;51.502;7.108;2023-10-13T02:23:04;21.08;;;10.38;;
31618;SDS011;18230;51.502;7.108;2023-10-13T02:28:10;17.20;;;9.75;;
31618;SDS011;18230;51.502;7.108;2023-10-13T02:33:14;19.33;;;9.85;;
31618;SDS011;18230;51.502;7.108;2023-10-13T02:38:21;23.23;;;9.95;;
31618;SDS011;18230;51.502;7.108;2023-10-13T02:43:42;17.45;;;10.10;;
31618;SDS011;18230;51.502;7.108;2023-10-13T02:48:43;20.13;;;10.63;;
31618;SDS011;18230;51.502;7.108;2023-10-13T02:53:46;18.85;;;10.07;;
31618;SDS011;18230;51.502;7.108;2023-10-13T02:58:48;18.70;;;10.18;;
31618;SDS011;18230;51.502;7.108;2023-10-13T03:04:05;25.55;;;10.10;;
31618;SDS011;18230;51.502;7.108;2023-10-13T03:09:09;20.65;;;10.30;;
31618;SDS011;18230;51.502;7.108;2023-10-13T03:14:22;19.63;;;10.15;;
31618;SDS011;18230;51.502;7.108;2023-10-13T03:19:32;17.58;;;10.00;;
31618;SDS011;18230;51.502;7.108;2023-10-13T03:24:34;20.85;;;10.52;;
31618;SDS011;18230;51.502;7.108;2023-10-13T03:29:38;17.98;;;10.68;;
31618;SDS011;18230;51.502;7.108;2023-10-13T03:34:46;18.15;;;10.90;;
31618;SDS011;18230;51.502;7.108;2023-10-13T03:39:54;18.70;;;10.38;;
31618;SDS011;18230;51.502;7.108;2023-10-13T03:44:55;16.20;;;10.38;;
31618;SDS011;18230;51.502;7.108;2023-10-13T03:49:56;17.77;;;10.45;;
31618;SDS011;18230;51.502;7.108;2023-10-13T03:55:15;18.58;;;11.80;;
31618;SDS011;18230;51.502;7.108;2023-10-13T04:00:18;16.85;;;11.57;;
31618;SDS011;18230;51.502;7.108;2023-10-13T04:05:32;21.08;;;12.90;;
31618;SDS011;18230;51.502;7.108;2023-10-13T04:10:36;17.33;;;11.65;;
31618;SDS011;18230;51.502;7.108;2023-10-13T04:15:53;17.43;;;11.00;;
31618;SDS011;18230;51.502;7.108;2023-10-13T04:21:23;21.63;;;11.38;;
31618;SDS011;18230;51.502;7.108;2023-10-13T04:26:39;20.92;;;12.30;;
31618;SDS011;18230;51.502;7.108;2023-10-13T04:31:43;18.90;;;11.25;;
31618;SDS011;18230;51.502;7.108;2023-10-13T04:36:56;16.35;;;10.82;;
31618;SDS011;18230;51.502;7.108;2023-10-13T04:42:16;17.30;;;10.88;;
31618;SDS011;18230;51.502;7.108;2023-10-13T04:47:37;19.42;;;10.57;;
31618;SDS011;18230;51.502;7.108;2023-10-13T04:52:57;21.23;;;11.07;;
31618;SDS011;18230;51.502;7.108;2023-10-13T04:58:13;26.00;;;11.98;;
31618;SDS011;18230;51.502;7.108;2023-10-13T05:03:37;23.17;;;10.60;;
31618;SDS011;18230;51.502;7.108;2023-10-13T05:08:52;22.92;;;10.18;;
31618;SDS011;18230;51.502;7.108;2023-10-13T05:14:12;20.50;;;10.25;;
31618;SDS011;18230;51.502;7.108;2023-10-13T05:19:31;19.80;;;10.05;;
31618;SDS011;18230;51.502;7.108;2023-10-13T05:24:50;15.90;;;10.25;;
31618;SDS011;18230;51.502;7.108;2023-10-13T05:30:09;20.20;;;10.35;;
31618;SDS011;18230;51.502;7.108;2023-10-13T05:35:30;23.23;;;12.00;;
31618;SDS011;18230;51.502;7.108;2023-10-13T05:40:56;20.27;;;12.07;;
31618;SDS011;18230;51.502;7.108;2023-10-13T05:46:16;20.88;;;11.52;;
31618;SDS011;18230;51.502;7.108;2023-10-13T05:51:26;23.80;;;11.35;;
31618;SDS011;18230;51.502;7.108;2023-10-13T05:56:47;25.25;;;10.75;;
31618;SDS011;18230;51.502;7.108;2023-10-13T06:02:19;18.80;;;10.13;;
31618;SDS011;18230;51.502;7.108;2023-10-13T06:07:39;20.98;;;9.00;;
31618;SDS011;18230;51.502;7.108;2023-10-13T06:12:58;17.92;;;8.95;;
31618;SDS011;18230;51.502;7.108;2023-10-13T06:18:17;16.65;;;7.85;;
31618;SDS011;18230;51.502;7.108;2023-10-13T06:23:36;20.50;;;10.00;;
31618;SDS011;18230;51.502;7.108;2023-10-13T06:28:55;18.27;;;8.32;;
31618;SDS011;18230;51.502;7.108;2023-10-13T06:33:56;22.23;;;8.73;;
31618;SDS011;18230;51.502;7.108;2023-10-13T06:38:56;17.73;;;8.85;;
31618;SDS011;18230;51.502;7.108;2023-10-13T06:44:17;21.50;;;7.03;;
31618;SDS011;18230;51.502;7.108;2023-10-13T06:49:18;18.80;;;6.93;;
31618;SDS011;18230;51.502;7.108;2023-10-13T06:54:18;17.75;;;7.15;;
31618;SDS011;18230;51.502;7.108;2023-10-13T06:59:20;13.07;;;6.60;;
31618;SDS011;18230;51.502;7.108;2023-10-13T07:04:26;18.02;;;6.90;;
31618;SDS011;18230;51.502;7.108;2023-10-13T07:09:27;17.05;;;6.80;;
31618;SDS011;18230;51.502;7.108;2023-10-13T07:14:30;21.63;;;8.00;;
31618;SDS011;18230;51.502;7.108;2023-10-13T07:19:33;16.27;;;7.30;;
31618;SDS011;18230;51.502;7.108;2023-10-13T07:24:34;16.73;;;7.20;;
31618;SDS011;18230;51.502;7.108;2023-10-13T07:29:39;17.52;;;6.80;;
31618;SDS011;18230;51.502;7.108;2023-10-13T07:34:42;19.65;;;7.07;;
31618;SDS011;18230;51.502;7.108;2023-10-13T07:39:42;20.50;;;7.40;;
31618;SDS011;18230;51.502;7.108;2023-10-13T07:44:43;17.83;;;7.68;;
31618;SDS011;18230;51.502;7.108;2023-10-13T07:49:46;17.40;;;7.88;;
31618;SDS011;18230;51.502;7.108;2023-10-13T07:54:50;24.92;;;6.90;;
31618;SDS011;18230;51.502;7.108;2023-10-13T08:00:10;16.85;;;7.53;;
31618;SDS011;18230;51.502;7.108;2023-10-13T08:05:25;15.45;;;6.85;;
31618;SDS011;18230;51.502;7.108;2023-10-13T08:10:39;23.90;;;7.57;;
31618;SDS011;18230;51.502;7.108;2023-10-13T08:15:45;18.10;;;6.30;;
31618;SDS011;18230;51.502;7.108;2023-10-13T08:20:48;15.13;;;6.38;;
31618;SDS011;18230;51.502;7.108;2023-10-13T08:25:52;14.93;;;6.80;;
31618;SDS011;18230;51.502;7.108;2023-10-13T08:31:11;18.90;;;6.25;;
31618;SDS011;18230;51.502;7.108;2023-10-13T08:36:22;15.55;;;5.97;;
31618;SDS011;18230;51.502;7.108;2023-10-13T08:41:29;24.88;;;7.30;;
31618;SDS011;18230;51.502;7.108;2023-10-13T08:46:31;24.88;;;5.97;;
31618;SDS011;18230;51.502;7.108;2023-10-13T08:51:51;17.70;;;6.28;;
31618;SDS011;18230;51.502;7.108;2023-10-13T08:57:23;19.40;;;5.95;;
31618;SDS011;18230;51.502;7.108;2023-10-13T09:02:35;16.95;;;6.18;;
31618;SDS011;18230;51.502;7.108;2023-10-13T09:07:54;19.58;;;5.63;;
31618;SDS011;18230;51.502;7.108;2023-10-13T09:12:57;18.05;;;5.78;;
31618;SDS011;18230;51.502;7.108;2023-10-13T09:18:01;21.10;;;6.05;;
31618;SDS011;18230;51.502;7.108;2023-10-13T09:23:19;20.05;;;5.70;;
31618;SDS011;18230;51.502;7.108;2023-10-13T09:28:28;23.13;;;6.40;;
31618;SDS011;18230;51.502;7.108;2023-10-13T09:33:31;19.13;;;5.75;;
31618;SDS011;18230;51.502;7.108;2023-10-13T09:38:47;16.48;;;5.93;;
31618;SDS011;18230;51.502;7.108;2023-10-13T09:43:49;22.20;;;5.97;;
31618;SDS011;18230;51.502;7.108;2023-10-13T09:48:58;22.88;;;6.20;;
31618;SDS011;18230;51.502;7.108;2023-10-13T09:54:10;18.73;;;5.63;;
31618;SDS011;18230;51.502;7.108;2023-10-13T09:59:33;14.43;;;5.90;;
31618;SDS011;18230;51.502;7.108;2023-10-13T10:04:56;17.05;;;5.60;;
31618;SDS011;18230;51.502;7.108;2023-10-13T10:10:22;15.45;;;5.63;;
31618;SDS011;18230;51.502;7.108;2023-10-13T10:15:37;13.75;;;5.80;;
31618;SDS011;18230;51.502;7.108;2023-10-13T10:20:43;17.00;;;6.10;;
31618;SDS011;18230;51.502;7.108;2023-10-13T10:25:50;13.65;;;6.05;;
31618;SDS011;18230;51.502;7.108;2023-10-13T10:30:51;19.70;;;6.72;;
31618;SDS011;18230;51.502;7.108;2023-10-13T10:36:01;18.75;;;9.65;;
31618;SDS011;18230;51.502;7.108;2023-10-13T10:41:02;17.85;;;6.93;;
31618;SDS011;18230;51.502;7.108;2023-10-13T10:46:04;17.00;;;6.65;;
31618;SDS011;18230;51.502;7.108;2023-10-13T10:51:05;23.98;;;7.50;;
31618;SDS011;18230;51.502;7.108;2023-10-13T10:56:07;17.15;;;6.40;;
31618;SDS011;18230;51.502;7.108;2023-10-13T11:01:19;18.05;;;7.07;;
31618;SDS011;18230;51.502;7.108;2023-10-13T11:11:49;16.85;;;6.60;;
31618;SDS011;18230;51.502;7.108;2023-10-13T11:16:53;22.17;;;6.90;;
31618;SDS011;18230;51.502;7.108;2023-10-13T11:22:09;20.60;;;7.00;;
31618;SDS011;18230;51.502;7.108;2023-10-13T11:27:35;16.83;;;7.57;;
31618;SDS011;18230;51.502;7.108;2023-10-13T11:33:01;23.00;;;7.78;;
31618;SDS011;18230;51.502;7.108;2023-10-13T11:38:07;15.90;;;7.70;;
31618;SDS011;18230;51.502;7.108;2023-10-13T11:43:14;16.80;;;6.70;;
31618;SDS011;18230;51.502;7.108;2023-10-13T11:48:15;20.85;;;7.75;;
31618;SDS011;18230;51.502;7.108;2023-10-13T11:53:16;20.05;;;8.23;;
31618;SDS011;18230;51.502;7.108;2023-10-13T11:58:18;26.98;;;7.13;;
31618;SDS011;18230;51.502;7.108;2023-10-13T12:03:18;24.27;;;7.53;;
31618;SDS011;18230;51.502;7.108;2023-10-13T12:08:37;23.63;;;8.52;;
31618;SDS011;18230;51.502;7.108;2023-10-13T12:13:49;22.45;;;6.75;;
31618;SDS011;18230;51.502;7.108;2023-10-13T12:18:49;19.25;;;7.88;;
31618;SDS011;18230;51.502;7.108;2023-10-13T12:23:53;26.23;;;7.45;;
31618;SDS011;18230;51.502;7.108;2023-10-13T12:28:54;20.65;;;6.53;;
31618;SDS011;18230;51.502;7.108;2023-10-13T12:34:05;32.58;;;7.93;;
31618;SDS011;18230;51.502;7.108;2023-10-13T12:39:06;23.48;;;6.90;;
31618;SDS011;18230;51.502;7.108;2023-10-13T12:44:07;28.40;;;7.10;;
31618;SDS011;18230;51.502;7.108;2023-10-13T12:49:26;22.27;;;7.18;;
31618;SDS011;18230;51.502;7.108;2023-10-13T12:54:43;20.83;;;7.67;;
31618;SDS011;18230;51.502;7.108;2023-10-13T13:00:04;23.50;;;6.70;;
31618;SDS011;18230;51.502;7.108;2023-10-13T13:05:16;26.55;;;6.75;;
31618;SDS011;18230;51.502;7.108;2023-10-13T13:10:22;24.08;;;7.13;;
31618;SDS011;18230;51.502;7.108;2023-10-13T13:15:34;26.25;;;6.85;;
31618;SDS011;18230;51.502;7.108;2023-10-13T13:20:35;29.00;;;6.93;;
31618;SDS011;18230;51.502;7.108;2023-10-13T13:25:39;33.67;;;8.13;;
31618;SDS011;18230;51.502;7.108;2023-10-13T13:30:42;26.58;;;7.25;;
31618;SDS011;18230;51.502;7.108;2023-10-13T13:35:43;24.88;;;7.57;;
31618;SDS011;18230;51.502;7.108;2023-10-13T13:40:44;29.73;;;7.43;;
31618;SDS011;18230;51.502;7.108;2023-10-13T13:45:49;28.50;;;6.75;;
31618;SDS011;18230;51.502;7.108;2023-10-13T13:50:49;26.27;;;6.95;;
31618;SDS011;18230;51.502;7.108;2023-10-13T13:55:55;18.95;;;6.53;;
31618;SDS011;18230;51.502;7.108;2023-10-13T14:01:00;29.42;;;7.40;;
31618;SDS011;18230;51.502;7.108;2023-10-13T14:06:22;26.88;;;6.95;;
31618;SDS011;18230;51.502;7.108;2023-10-13T14:11:25;26.15;;;6.53;;
31618;SDS011;18230;51.502;7.108;2023-10-13T14:16:39;24.00;;;6.75;;
31618;SDS011;18230;51.502;7.108;2023-10-13T14:21:47;26.95;;;6.90;;
31618;SDS011;18230;51.502;7.108;2023-10-13T14:26:54;36.67;;;8.03;;
31618;SDS011;18230;51.502;7.108;2023-10-13T14:31:55;24.08;;;6.55;;
31618;SDS011;18230;51.502;7.108;2023-10-13T14:36:55;24.05;;;6.75;;
31618;SDS011;18230;51.502;7.108;2023-10-13T14:41:56;30.65;;;7.35;;
31618;SDS011;18230;51.502;7.108;2023-10-13T14:47:00;20.65;;;6.10;;
31618;SDS011;18230;51.502;7.108;2023-10-13T14:52:01;23.65;;;6.25;;
31618;SDS011;18230;51.502;7.108;2023-10-13T14:57:02;32.03;;;6.68;;
31618;SDS011;18230;51.502;7.108;2023-10-13T15:02:03;34.53;;;7.20;;
31618;SDS011;18230;51.502;7.108;2023-10-13T15:07:04;27.60;;;6.80;;
31618;SDS011;18230;51.502;7.108;2023-10-13T15:12:06;23.40;;;6.78;;
31618;SDS011;18230;51.502;7.108;2023-10-13T15:17:10;21.15;;;5.85;;
31618;SDS011;18230;51.502;7.108;2023-10-13T15:22:11;28.58;;;6.80;;
31618;SDS011;18230;51.502;7.108;2023-10-13T15:27:21;26.92;;;6.38;;
31618;SDS011;18230;51.502;7.108;2023-10-13T15:32:23;26.02;;;6.85;;
31618;SDS011;18230;51.502;7.108;2023-10-13T15:37:42;20.95;;;6.10;;
31618;SDS011;18230;51.502;7.108;2023-10-13T15:42:47;18.23;;;5.82;;
31618;SDS011;18230;51.502;7.108;2023-10-13T15:47:47;22.45;;;5.68;;
31618;SDS011;18230;51.502;7.108;2023-10-13T15:52:48;21.02;;;6.15;;
31618;SDS011;18230;51.502;7.108;2023-10-13T15:57:49;21.80;;;5.72;;
31618;SDS011;18230;51.502;7.108;2023-10-13T16:02:53;22.63;;;6.05;;
31618;SDS011;18230;51.502;7.108;2023-10-13T16:07:56;17.10;;;5.90;;
31618;SDS011;18230;51.502;7.108;2023-10-13T16:12:57;25.92;;;5.72;;
31618;SDS011;18230;51.502;7.108;2023-10-13T16:17:58;14.73;;;5.55;;
31618;SDS011;18230;51.502;7.108;2023-10-13T16:22:58;23.75;;;5.95;;
31618;SDS011;18230;51.502;7.108;2023-10-13T16:27:59;22.25;;;5.93;;
31618;SDS011;18230;51.502;7.108;2023-10-13T16:33:00;18.25;;;5.75;;
31618;SDS011;18230;51.502;7.108;2023-10-13T16:38:00;21.17;;;5.70;;
31618;SDS011;18230;51.502;7.108;2023-10-13T16:43:06;22.45;;;6.40;;
31618;SDS011;18230;51.502;7.108;2023-10-13T16:48:10;18.95;;;5.63;;
31618;SDS011;18230;51.502;7.108;2023-10-13T16:53:14;18.55;;;6.40;;
31618;SDS011;18230;51.502;7.108;2023-10-13T16:58:15;29.02;;;6.53;;
31618;SDS011;18230;51.502;7.108;2023-10-13T17:03:16;17.17;;;6.47;;
31618;SDS011;18230;51.502;7.108;2023-10-13T17:08:17;20.42;;;5.88;;
31618;SDS011;18230;51.502;7.108;2023-10-13T17:13:17;24.17;;;6.10;;
31618;SDS011;18230;51.502;7.108;2023-10-13T17:18:18;13.50;;;5.95;;
31618;SDS011;18230;51.502;7.108;2023-10-13T17:23:18;20.42;;;6.25;;
31618;SDS011;18230;51.502;7.108;2023-10-13T17:28:19;21.27;;;5.88;;
31618;SDS011;18230;51.502;7.108;2023-10-13T17:33:22;19.25;;;6.22;;
31618;SDS011;18230;51.502;7.108;2023-10-13T17:38:24;15.68;;;6.28;;
31618;SDS011;18230;51.502;7.108;2023-10-13T17:43:25;20.88;;;6.03;;
31618;SDS011;18230;51.502;7.108;2023-10-13T17:48:25;14.23;;;5.82;;
31618;SDS011;18230;51.502;7.108;2023-10-13T17:53:26;20.42;;;6.25;;
31618;SDS011;18230;51.502;7.108;2023-10-13T17:58:34;17.08;;;6.30;;
31618;SDS011;18230;51.502;7.108;2023-10-13T18:03:35;16.95;;;5.65;;
31618;SDS011;18230;51.502;7.108;2023-10-13T18:08:39;15.30;;;6.85;;
31618;SDS011;18230;51.502;7.108;2023-10-13T18:13:42;21.38;;;5.95;;
31618;SDS011;18230;51.502;7.108;2023-10-13T18:18:45;16.85;;;6.07;;
31618;SDS011;18230;51.502;7.108;2023-10-13T18:23:48;15.57;;;6.32;;
31618;SDS011;18230;51.502;7.108;2023-10-13T18:28:49;12.73;;;5.93;;
31618;SDS011;18230;51.502;7.108;2023-10-13T18:33:58;15.45;;;6.60;;
31618;SDS011;18230;51.502;7.108;2023-10-13T18:38:59;17.70;;;5.50;;
31618;SDS011;18230;51.502;7.108;2023-10-13T18:43:59;16.98;;;6.13;;
31618;SDS011;18230;51.502;7.108;2023-10-13T18:49:00;16.08;;;5.90;;
31618;SDS011;18230;51.502;7.108;2023-10-13T18:54:02;16.60;;;5.75;;
31618;SDS011;18230;51.502;7.108;2023-10-13T18:59:02;17.08;;;6.10;;
31618;SDS011;18230;51.502;7.108;2023-10-13T19:04:04;18.45;;;6.72;;
31618;SDS011;18230;51.502;7.108;2023-10-13T19:09:11;23.15;;;6.43;;
31618;SDS011;18230;51.502;7.108;2023-10-13T19:14:21;19.20;;;6.60;;
31618;SDS011;18230;51.502;7.108;2023-10-13T19:19:23;33.58;;;6.88;;
31618;SDS011;18230;51.502;7.108;2023-10-13T19:24:25;19.48;;;6.50;;
31618;SDS011;18230;51.502;7.108;2023-10-13T19:29:28;19.35;;;7.32;;
31618;SDS011;18230;51.502;7.108;2023-10-13T19:34:28;17.10;;;7.07;;
31618;SDS011;18230;51.502;7.108;2023-10-13T19:39:29;25.42;;;8.75;;
31618;SDS011;18230;51.502;7.108;2023-10-13T19:44:32;23.17;;;8.02;;
31618;SDS011;18230;51.502;7.108;2023-10-13T19:49:33;26.50;;;7.43;;
31618;SDS011;18230;51.502;7.108;2023-10-13T19:54:37;25.75;;;7.47;;
31618;SDS011;18230;51.502;7.108;2023-10-13T19:59:39;24.23;;;7.82;;
31618;SDS011;18230;51.502;7.108;2023-10-13T20:04:41;26.90;;;8.35;;
31618;SDS011;18230;51.502;7.108;2023-10-13T20:09:41;24.70;;;9.30;;
31618;SDS011;18230;51.502;7.108;2023-10-13T20:14:42;34.78;;;11.60;;
31618;SDS011;18230;51.502;7.108;2023-10-13T20:19:43;27.83;;;10.32;;
31618;SDS011;18230;51.502;7.108;2023-10-13T20:24:43;26.15;;;10.20;;
31618;SDS011;18230;51.502;7.108;2023-10-13T20:29:45;27.77;;;9.32;;
31618;SDS011;18230;51.502;7.108;2023-10-13T20:34:45;30.85;;;9.90;;
31618;SDS011;18230;51.502;7.108;2023-10-13T20:39:49;31.92;;;10.77;;
31618;SDS011;18230;51.502;7.108;2023-10-13T20:44:49;20.73;;;9.25;;
31618;SDS011;18230;51.502;7.108;2023-10-13T20:49:51;24.45;;;9.25;;
31618;SDS011;18230;51.502;7.108;2023-10-13T20:54:52;23.02;;;8.88;;
31618;SDS011;18230;51.502;7.108;2023-10-13T20:59:53;28.38;;;9.57;;
31618;SDS011;18230;51.502;7.108;2023-10-13T21:04:54;23.23;;;9.35;;
31618;SDS011;18230;51.502;7.108;2023-10-13T21:09:54;26.08;;;9.65;;
31618;SDS011;18230;51.502;7.108;2023-10-13T21:14:55;29.63;;;9.90;;
31618;SDS011;18230;51.502;7.108;2023-10-13T21:19:56;29.55;;;9.25;;
31618;SDS011;18230;51.502;7.108;2023-10-13T21:24:56;22.10;;;8.95;;
31618;SDS011;18230;51.502;7.108;2023-10-13T21:29:59;32.70;;;8.98;;
31618;SDS011;18230;51.502;7.108;2023-10-13T21:35:01;19.70;;;8.93;;
31618;SDS011;18230;51.502;7.108;2023-10-13T21:40:01;24.08;;;8.95;;
31618;SDS011;18230;51.502;7.108;2023-10-13T21:45:03;22.42;;;8.63;;
31618;SDS011;18230;51.502;7.108;2023-10-13T21:50:04;24.70;;;8.88;;
31618;SDS011;18230;51.502;7.108;2023-10-13T21:55:05;25.73;;;9.15;;
31618;SDS011;18230;51.502;7.108;2023-10-13T22:00:07;26.20;;;7.95;;
31618;SDS011;18230;51.502;7.108;2023-10-13T22:05:20;27.65;;;8.82;;
31618;SDS011;18230;51.502;7.108;2023-10-13T22:10:23;23.63;;;8.50;;
31618;SDS011;18230;51.502;7.108;2023-10-13T22:15:24;21.30;;;8.10;;
31618;SDS011;18230;51.502;7.108;2023-10-13T22:20:28;25.45;;;8.70;;
31618;SDS011;18230;51.502;7.108;2023-10-13T22:25:28;29.83;;;8.18;;
31618;SDS011;18230;51.502;7.108;2023-10-13T22:30:30;20.38;;;7.68;;
31618;SDS011;18230;51.502;7.108;2023-10-13T22:35:32;20.42;;;8.25;;
31618;SDS011;18230;51.502;7.108;2023-10-13T22:40:32;22.08;;;9.23;;
31618;SDS011;18230;51.502;7.108;2023-10-13T22:45:33;30.95;;;10.02;;
31618;SDS011;18230;51.502;7.108;2023-10-13T22:50:34;24.80;;;8.95;;
31618;SDS011;18230;51.502;7.108;2023-10-13T22:55:34;23.75;;;9.35;;
31618;SDS011;18230;51.502;7.108;2023-10-13T23:00:43;22.95;;;9.30;;
31618;SDS011;18230;51.502;7.108;2023-10-13T23:05:44;24.92;;;8.98;;
31618;SDS011;18230;51.502;7.108;2023-10-13T23:11:04;23.38;;;9.13;;
31618;SDS011;18230;51.502;7.108;2023-10-13T23:16:22;18.95;;;8.55;;
31618;SDS011;18230;51.502;7.108;2023-10-13T23:21:24;18.63;;;8.50;;
31618;SDS011;18230;51.502;7.108;2023-10-13T23:26:29;23.58;;;8.73;;
31618;SDS011;18230;51.502;7.108;2023-10-13T23:31:29;23.10;;;9.48;;
31618;SDS011;18230;51.502;7.108;2023-10-13T23:36:30;23.20;;;8.90;;
31618;SDS011;18230;51.502;7.108;2023-10-13T23:41:31;26.65;;;9.82;;
31618;SDS011;18230;51.502;7.108;2023-10-13T23:46:31;21.92;;;9.00;;
31618;SDS011;18230;51.502;7.108;2023-10-13T23:51:34;27.20;;;9.63;;
31618;SDS011;18230;51.502;7.108;2023-10-13T23:56:35;24.40;;;9.80;;
